Time;durP1;ratioP1;P1;durP2;ratioP2;P2;SDS_P1;SDS_P2;PMS_P1;PMS_P2;Temp;Humidity;BMP_temperature;BMP_pressure;BME280_temperature;BME280_humidity;BME280_pressure;Samples;Min_cycle;Max_cycle;Signal;HPM_P1;HPM_P2
2022/07/19 00:01:29;;;;;;;2.72;1.73;;;18.40;99.90;;;;;;5073100;28;20051;-73
2022/07/19 00:03:56;;;;;;;3.28;2.05;;;18.40;99.90;;;;;;5073297;28;20044;-73
2022/07/19 00:06:22;;;;;;;2.97;1.98;;;18.40;99.90;;;;;;5073923;28;20190;-73
2022/07/19 00:08:48;;;;;;;2.95;1.80;;;18.40;99.90;;;;;;5073210;28;20078;-73
2022/07/19 00:11:14;;;;;;;4.13;2.00;;;18.40;99.90;;;;;;5072198;28;20094;-73
2022/07/19 00:13:39;;;;;;;3.83;2.00;;;18.40;99.90;;;;;;5072501;28;20044;-73
2022/07/19 00:16:05;;;;;;;4.78;1.90;;;18.40;99.90;;;;;;5072761;28;20051;-74
2022/07/19 00:18:31;;;;;;;3.42;1.77;;;18.40;99.90;;;;;;5073117;28;20047;-73
2022/07/19 00:20:56;;;;;;;3.28;2.10;;;18.30;99.90;;;;;;5072797;28;20127;-73
2022/07/19 00:23:22;;;;;;;4.00;2.10;;;18.20;99.90;;;;;;5073533;28;20041;-73
2022/07/19 00:25:48;;;;;;;3.33;1.88;;;18.10;99.90;;;;;;5073474;28;20127;-73
2022/07/19 00:28:13;;;;;;;3.08;1.92;;;18.10;99.90;;;;;;5073032;28;20037;-73
2022/07/19 00:30:39;;;;;;;4.07;3.03;;;18.10;99.90;;;;;;5073753;28;20052;-74
2022/07/19 00:33:08;;;;;;;6.07;3.40;;;18.20;99.90;;;;;;5073226;28;20044;-74
2022/07/19 00:35:35;;;;;;;4.38;3.08;;;18.30;99.90;;;;;;5072932;28;20040;-73
2022/07/19 00:38:19;;;;;;;4.93;3.58;;;18.30;99.90;;;;;;5072823;28;20032;-74
2022/07/19 00:40:45;;;;;;;5.05;4.10;;;18.40;99.90;;;;;;5072919;28;20461;-74
2022/07/19 00:43:11;;;;;;;4.50;3.38;;;18.40;99.90;;;;;;5073405;28;20044;-73
2022/07/19 00:45:37;;;;;;;6.18;3.45;;;18.40;99.90;;;;;;5073385;28;20440;-74
2022/07/19 00:48:04;;;;;;;5.25;3.00;;;18.40;99.90;;;;;;5073316;28;20083;-73
2022/07/19 00:50:30;;;;;;;3.70;2.67;;;18.40;99.90;;;;;;5072817;28;20098;-73
2022/07/19 00:53:04;;;;;;;3.67;2.60;;;18.30;99.90;;;;;;5072812;28;20040;-73
2022/07/19 00:55:31;;;;;;;5.43;3.00;;;18.20;99.90;;;;;;5072685;28;20040;-73
2022/07/19 00:57:58;;;;;;;5.13;3.17;;;18.00;99.90;;;;;;5071470;28;20043;-73
2022/07/19 01:00:25;;;;;;;4.97;3.08;;;18.00;99.90;;;;;;5073213;28;20087;-74
2022/07/19 01:02:51;;;;;;;3.35;2.47;;;17.90;99.90;;;;;;5071302;28;20056;-73
2022/07/19 01:05:18;;;;;;;4.57;2.70;;;17.90;99.90;;;;;;5073295;28;20040;-73
2022/07/19 01:07:44;;;;;;;5.60;2.50;;;17.80;99.90;;;;;;5077073;28;20115;-73
2022/07/19 01:10:12;;;;;;;4.82;2.40;;;17.60;99.90;;;;;;5076004;28;20424;-73
2022/07/19 01:12:38;;;;;;;3.72;2.40;;;17.50;99.90;;;;;;5076240;28;20167;-73
2022/07/19 01:15:25;;;;;;;3.60;2.50;;;17.30;99.90;;;;;;5075783;28;20131;-73
2022/07/19 01:17:52;;;;;;;3.65;2.10;;;17.10;99.90;;;;;;5074983;28;20457;-73
2022/07/19 01:20:20;;;;;;;4.20;2.28;;;17.10;99.90;;;;;;5075175;28;20115;-73
2022/07/19 01:22:46;;;;;;;3.08;2.08;;;17.10;99.90;;;;;;5075796;28;20055;-73
2022/07/19 01:25:12;;;;;;;4.25;2.40;;;17.20;99.90;;;;;;5075944;28;20047;-73
2022/07/19 01:27:50;;;;;;;2.67;2.05;;;17.10;99.90;;;;;;5076001;28;20040;-73
2022/07/19 01:30:20;;;;;;;3.88;2.28;;;17.10;99.90;;;;;;5075504;28;20365;-73
2022/07/19 01:32:45;;;;;;;4.63;2.78;;;17.10;99.90;;;;;;5075908;28;20082;-73
2022/07/19 01:35:12;;;;;;;4.10;2.35;;;17.10;99.90;;;;;;5076126;28;20053;-73
2022/07/19 01:37:38;;;;;;;4.22;2.67;;;17.10;99.90;;;;;;5075380;28;20040;-73
2022/07/19 01:40:06;;;;;;;3.33;2.55;;;17.20;99.90;;;;;;5074794;28;20041;-73
2022/07/19 01:42:32;;;;;;;5.32;2.83;;;17.20;99.90;;;;;;5076205;28;20040;-73
2022/07/19 01:44:58;;;;;;;3.75;2.85;;;17.20;99.90;;;;;;5075649;28;20454;-73
2022/07/19 01:47:24;;;;;;;4.68;3.00;;;17.30;99.90;;;;;;5074450;28;20389;-73
2022/07/19 01:49:50;;;;;;;4.65;2.83;;;17.40;99.90;;;;;;5075517;28;20040;-73
2022/07/19 01:52:16;;;;;;;4.50;3.22;;;17.40;99.90;;;;;;5075511;28;20081;-73
2022/07/19 01:54:41;;;;;;;5.53;2.72;;;17.40;99.90;;;;;;5074231;28;20475;-73
2022/07/19 01:57:07;;;;;;;4.75;2.88;;;17.40;99.90;;;;;;5074996;28;20044;-73
2022/07/19 01:59:36;;;;;;;4.50;3.22;;;17.40;99.90;;;;;;5075396;28;20182;-73
2022/07/19 02:02:02;;;;;;;3.85;2.97;;;17.40;99.90;;;;;;5075463;28;20342;-74
2022/07/19 02:04:27;;;;;;;4.78;3.55;;;17.30;99.90;;;;;;5075312;28;20488;-73
2022/07/19 02:06:53;;;;;;;4.55;3.10;;;17.20;99.90;;;;;;5075213;28;20044;-73
2022/07/19 02:09:19;;;;;;;4.15;3.40;;;17.10;99.90;;;;;;5057565;28;20044;-73
2022/07/19 02:11:44;;;;;;;5.40;3.88;;;17.10;99.90;;;;;;5058048;28;20119;-73
2022/07/19 02:14:10;;;;;;;5.32;4.40;;;17.20;99.90;;;;;;5074057;28;20090;-73
2022/07/19 02:16:37;;;;;;;6.63;4.65;;;17.30;99.90;;;;;;5074667;28;20123;-73
2022/07/19 02:19:04;;;;;;;3.78;3.17;;;17.30;99.90;;;;;;5074046;28;20040;-73
2022/07/19 02:21:31;;;;;;;5.22;3.42;;;17.30;99.90;;;;;;5073949;28;20113;-74
2022/07/19 02:23:56;;;;;;;4.43;3.45;;;17.20;99.90;;;;;;5075673;28;20040;-73
2022/07/19 02:26:22;;;;;;;4.47;3.03;;;17.20;99.90;;;;;;5075510;28;20051;-74
2022/07/19 02:28:48;;;;;;;6.28;3.58;;;17.10;99.90;;;;;;5075286;28;20369;-73
2022/07/19 02:31:13;;;;;;;4.75;3.20;;;17.00;99.90;;;;;;5073807;28;20045;-74
2022/07/19 02:33:39;;;;;;;4.63;3.58;;;16.90;99.90;;;;;;5074422;28;20037;-73
2022/07/19 02:36:05;;;;;;;5.00;3.60;;;16.90;99.90;;;;;;5073656;28;20044;-73
2022/07/19 02:38:31;;;;;;;5.30;3.83;;;16.90;99.90;;;;;;5073536;28;20075;-74
2022/07/19 02:40:57;;;;;;;5.90;3.83;;;16.90;99.90;;;;;;5074552;28;20044;-74
2022/07/19 02:43:23;;;;;;;6.57;4.88;;;16.90;99.90;;;;;;5074593;28;20508;-74
2022/07/19 02:45:49;;;;;;;5.47;4.20;;;16.80;99.90;;;;;;5074657;28;20079;-73
2022/07/19 02:48:14;;;;;;;5.72;4.50;;;16.80;99.90;;;;;;5073382;28;20224;-73
2022/07/19 02:50:41;;;;;;;6.35;4.50;;;16.70;99.90;;;;;;5074115;28;20075;-74
2022/07/19 02:53:06;;;;;;;6.22;4.78;;;16.80;99.90;;;;;;5073593;28;20048;-73
2022/07/19 02:55:32;;;;;;;4.55;4.00;;;16.70;99.90;;;;;;5074273;28;20381;-73
2022/07/19 02:57:58;;;;;;;6.32;5.70;;;16.70;99.90;;;;;;5074152;28;20039;-74
2022/07/19 03:00:23;;;;;;;6.95;4.30;;;16.70;99.90;;;;;;5073942;28;20472;-73
2022/07/19 03:02:49;;;;;;;6.05;5.35;;;16.70;99.90;;;;;;5072598;28;20055;-73
2022/07/19 03:05:15;;;;;;;5.28;4.63;;;16.70;99.90;;;;;;5074113;28;20094;-74
2022/07/19 03:07:41;;;;;;;4.60;4.10;;;16.70;99.90;;;;;;5074123;28;20033;-73
2022/07/19 03:10:08;;;;;;;5.00;3.72;;;16.60;99.90;;;;;;5073704;28;20525;-73
2022/07/19 03:12:34;;;;;;;7.40;5.78;;;16.50;99.90;;;;;;5072967;28;20080;-73
2022/07/19 03:15:00;;;;;;;7.55;5.15;;;16.40;99.90;;;;;;5073963;28;20076;-73
2022/07/19 03:17:26;;;;;;;7.03;4.28;;;16.30;99.90;;;;;;5073762;28;20047;-73
2022/07/19 03:19:51;;;;;;;6.63;4.32;;;16.40;99.90;;;;;;5074045;28;20037;-73
2022/07/19 03:22:17;;;;;;;6.45;4.95;;;16.40;99.90;;;;;;5073744;28;20084;-73
2022/07/19 03:24:42;;;;;;;6.18;5.35;;;16.40;99.90;;;;;;5074498;28;20076;-74
2022/07/19 03:27:08;;;;;;;6.43;5.30;;;16.40;99.90;;;;;;5073404;28;20040;-74
2022/07/19 03:29:34;;;;;;;6.55;5.18;;;16.50;99.90;;;;;;5071673;28;20036;-73
2022/07/19 03:31:59;;;;;;;8.13;4.88;;;16.40;99.90;;;;;;5074323;28;20123;-74
2022/07/19 03:34:26;;;;;;;6.18;5.40;;;16.40;99.90;;;;;;5072547;28;20542;-73
2022/07/19 03:36:52;;;;;;;5.80;5.10;;;16.30;99.90;;;;;;5073565;28;20044;-73
2022/07/19 03:39:17;;;;;;;5.55;5.00;;;16.30;99.90;;;;;;5073574;28;20086;-73
2022/07/19 03:41:43;;;;;;;6.03;5.38;;;16.20;99.90;;;;;;5073534;28;20076;-73
2022/07/19 03:44:09;;;;;;;5.75;5.15;;;16.10;99.90;;;;;;5072495;28;20052;-73
2022/07/19 03:46:34;;;;;;;6.55;5.07;;;16.00;99.90;;;;;;5073415;28;20043;-73
2022/07/19 03:49:00;;;;;;;7.65;5.63;;;15.90;99.90;;;;;;5073233;28;20508;-73
2022/07/19 03:51:26;;;;;;;7.07;5.35;;;15.80;99.90;;;;;;5073342;28;20056;-73
2022/07/19 03:53:52;;;;;;;5.68;5.07;;;15.70;99.90;;;;;;5072457;28;20052;-74
2022/07/19 03:56:18;;;;;;;6.43;5.65;;;15.70;99.90;;;;;;5074113;28;20044;-73
2022/07/19 03:58:44;;;;;;;6.30;5.43;;;15.80;99.90;;;;;;5072439;28;20451;-73
2022/07/19 04:01:10;;;;;;;7.18;5.68;;;15.80;99.90;;;;;;5073180;28;20173;-73
2022/07/19 04:03:39;;;;;;;7.43;5.80;;;15.90;99.90;;;;;;5055276;28;20062;-73
2022/07/19 04:06:11;;;;;;;6.25;5.40;;;16.00;99.90;;;;;;5072211;28;20484;-73
2022/07/19 04:08:37;;;;;;;6.18;4.60;;;16.10;99.90;;;;;;5072302;28;20465;-73
2022/07/19 04:11:04;;;;;;;7.65;4.90;;;16.20;99.90;;;;;;5072702;28;20460;-73
2022/07/19 04:13:32;;;;;;;5.53;4.57;;;16.30;99.90;;;;;;5073719;28;20040;-73
2022/07/19 04:15:58;;;;;;;5.97;3.88;;;16.40;99.90;;;;;;5073107;28;20492;-74
2022/07/19 04:18:23;;;;;;;6.38;4.78;;;16.50;99.90;;;;;;5073619;28;20086;-73
2022/07/19 04:20:49;;;;;;;5.40;4.43;;;16.60;99.90;;;;;;5073067;28;20058;-73
2022/07/19 04:23:14;;;;;;;6.53;4.15;;;16.70;99.90;;;;;;5073181;28;20040;-73
2022/07/19 04:25:40;;;;;;;4.78;3.90;;;16.70;99.90;;;;;;5072736;28;20044;-73
2022/07/19 04:28:07;;;;;;;6.18;4.38;;;16.80;99.90;;;;;;5073066;28;20075;-73
2022/07/19 04:30:33;;;;;;;5.47;4.10;;;16.90;99.90;;;;;;5073059;28;20048;-73
2022/07/19 04:32:58;;;;;;;5.82;4.82;;;17.00;99.90;;;;;;5072941;28;20041;-73
2022/07/19 04:35:24;;;;;;;5.40;4.50;;;17.00;99.90;;;;;;5072581;28;20151;-73
2022/07/19 04:37:50;;;;;;;5.82;4.63;;;17.00;99.90;;;;;;5072819;28;20385;-73
2022/07/19 04:40:15;;;;;;;6.90;4.97;;;17.10;99.90;;;;;;5074906;28;20036;-74
2022/07/19 04:42:41;;;;;;;6.68;5.18;;;17.10;99.90;;;;;;5076981;28;20118;-74
2022/07/19 04:45:07;;;;;;;7.68;5.80;;;17.10;99.90;;;;;;5076767;28;20036;-73
2022/07/19 04:47:33;;;;;;;8.30;5.90;;;17.10;99.90;;;;;;5076703;28;20366;-73
2022/07/19 04:49:58;;;;;;;9.00;6.10;;;17.00;99.90;;;;;;5076557;28;20048;-73
2022/07/19 04:52:24;;;;;;;7.90;5.63;;;17.00;99.90;;;;;;5075194;28;20048;-73
2022/07/19 04:54:50;;;;;;;7.40;6.03;;;17.00;99.90;;;;;;5076160;28;20080;-73
2022/07/19 04:57:15;;;;;;;6.45;5.43;;;17.00;99.90;;;;;;5076497;28;20045;-73
2022/07/19 04:59:41;;;;;;;8.15;5.80;;;17.10;99.90;;;;;;5076997;28;20078;-73
2022/07/19 05:02:07;;;;;;;6.90;5.32;;;17.10;99.90;;;;;;5075193;28;20041;-73
2022/07/19 05:04:33;;;;;;;7.30;5.45;;;17.20;99.90;;;;;;5076705;28;20080;-73
2022/07/19 05:06:59;;;;;;;5.88;4.47;;;17.30;99.90;;;;;;5076355;28;20070;-73
2022/07/19 05:09:25;;;;;;;5.72;4.65;;;17.50;99.90;;;;;;5075646;28;20083;-73
2022/07/19 05:11:51;;;;;;;5.30;4.40;;;17.70;99.90;;;;;;5076818;28;20098;-74
2022/07/19 05:14:17;;;;;;;6.78;4.80;;;17.80;99.90;;;;;;5076284;28;20036;-73
2022/07/19 05:16:43;;;;;;;5.78;4.57;;;18.00;99.90;;;;;;5075071;28;20102;-74
2022/07/19 05:19:09;;;;;;;7.03;4.72;;;18.10;99.90;;;;;;5076080;28;20032;-74
2022/07/19 05:21:35;;;;;;;6.20;4.78;;;18.30;99.90;;;;;;5076043;28;20044;-73
2022/07/19 05:24:00;;;;;;;6.55;4.28;;;18.50;99.90;;;;;;5076015;28;20046;-73
2022/07/19 05:26:26;;;;;;;5.35;4.63;;;18.60;99.90;;;;;;5074993;28;20433;-73
2022/07/19 05:28:52;;;;;;;5.38;4.68;;;18.70;99.90;;;;;;5074996;28;20040;-73
2022/07/19 05:31:18;;;;;;;8.95;4.65;;;18.80;99.90;;;;;;5075943;28;20040;-73
2022/07/19 05:33:43;;;;;;;7.93;4.97;;;18.90;99.90;;;;;;5075725;28;20384;-74
2022/07/19 05:36:10;;;;;;;6.82;4.82;;;18.90;99.90;;;;;;5074617;28;20040;-73
2022/07/19 05:38:39;;;;;;;5.80;4.75;;;19.10;99.90;;;;;;5075736;28;20046;-74
2022/07/19 05:41:10;;;;;;;6.40;5.13;;;19.10;99.90;;;;;;5074477;28;20047;-73
2022/07/19 05:43:37;;;;;;;7.75;5.18;;;19.20;99.90;;;;;;5075500;28;20118;-73
2022/07/19 05:46:04;;;;;;;5.88;4.88;;;19.20;99.90;;;;;;5076171;28;20037;-73
2022/07/19 05:48:30;;;;;;;7.00;4.53;;;19.30;99.90;;;;;;5058748;28;20163;-73
2022/07/19 05:50:56;;;;;;;5.22;4.68;;;19.40;99.90;;;;;;5074251;28;20177;-73
2022/07/19 05:53:22;;;;;;;6.13;4.65;;;19.40;99.90;;;;;;5074481;28;20044;-73
2022/07/19 05:55:48;;;;;;;5.35;4.85;;;19.60;99.90;;;;;;5075714;28;20040;-74
2022/07/19 05:58:14;;;;;;;6.88;4.95;;;19.60;99.90;;;;;;5075391;28;20140;-73
2022/07/19 06:01:17;;;;;;;6.72;5.20;;;19.80;99.90;;;;;;5075420;28;20036;-75
2022/07/19 06:03:25;;;;;;;5.33;4.53;;;19.90;99.90;;;;;;5075306;28;20091;-74
2022/07/19 06:05:50;;;;;;;6.68;5.10;;;20.00;99.90;;;;;;5075304;28;20055;-74
2022/07/19 06:08:16;;;;;;;6.65;4.97;;;20.00;99.90;;;;;;5075811;28;20048;-74
2022/07/19 06:10:42;;;;;;;7.40;4.60;;;20.20;99.90;;;;;;5075739;28;20078;-73
2022/07/19 06:13:07;;;;;;;6.30;4.80;;;20.30;99.90;;;;;;5058323;28;20137;-68
2022/07/19 06:15:33;;;;;;;6.68;4.88;;;20.40;99.90;;;;;;5075166;28;20044;-67
2022/07/19 06:17:59;;;;;;;6.07;4.85;;;20.40;99.90;;;;;;5073823;28;20072;-68
2022/07/19 06:20:24;;;;;;;5.75;4.85;;;20.50;99.90;;;;;;5075056;28;20036;-67
2022/07/19 06:22:50;;;;;;;7.05;5.03;;;20.60;99.90;;;;;;5074972;28;20048;-68
2022/07/19 06:25:15;;;;;;;5.25;4.60;;;20.70;99.90;;;;;;5074946;28;20047;-67
2022/07/19 06:27:41;;;;;;;5.43;4.38;;;20.80;99.90;;;;;;5074750;28;20043;-68
2022/07/19 06:30:07;;;;;;;6.82;4.80;;;20.90;99.90;;;;;;5073744;28;20045;-68
2022/07/19 06:32:33;;;;;;;7.82;4.85;;;21.00;99.90;;;;;;5075559;28;20330;-68
2022/07/19 06:34:59;;;;;;;5.72;4.60;;;21.10;99.90;;;;;;5075214;28;20040;-68
2022/07/19 06:37:24;;;;;;;7.20;4.85;;;21.20;99.90;;;;;;5073751;28;20044;-67
2022/07/19 06:39:50;;;;;;;6.53;4.13;;;21.30;99.90;;;;;;5056764;28;20086;-67
2022/07/19 06:42:16;;;;;;;5.28;4.18;;;21.40;99.90;;;;;;5074577;28;20055;-67
2022/07/19 06:44:41;;;;;;;5.47;4.38;;;21.60;99.90;;;;;;5074531;28;20040;-67
2022/07/19 06:47:07;;;;;;;5.53;4.25;;;21.70;99.90;;;;;;5073510;28;20087;-67
2022/07/19 06:49:32;;;;;;;5.40;4.60;;;21.80;99.90;;;;;;5074344;28;20033;-67
2022/07/19 06:51:58;;;;;;;5.28;4.03;;;21.90;99.90;;;;;;5074372;28;20052;-67
2022/07/19 06:54:24;;;;;;;5.63;4.30;;;22.00;99.90;;;;;;5074340;28;20040;-67
2022/07/19 06:56:49;;;;;;;5.85;4.53;;;22.10;99.90;;;;;;5074187;28;20048;-68
2022/07/19 06:59:15;;;;;;;4.80;3.63;;;22.20;99.90;;;;;;5074117;28;20102;-67
2022/07/19 07:01:41;;;;;;;5.60;4.15;;;22.40;99.90;;;;;;5073618;28;20387;-68
2022/07/19 07:04:06;;;;;;;5.97;3.97;;;22.50;99.90;;;;;;5074585;28;20063;-67
2022/07/19 07:06:32;;;;;;;5.57;3.75;;;22.60;99.90;;;;;;5074196;28;20045;-67
2022/07/19 07:08:58;;;;;;;5.70;3.80;;;22.70;99.90;;;;;;5074001;28;20106;-70
2022/07/19 07:11:23;;;;;;;5.43;3.55;;;22.80;99.90;;;;;;5073894;28;20389;-67
2022/07/19 07:13:49;;;;;;;4.93;3.67;;;22.90;99.90;;;;;;5071668;28;20049;-67
2022/07/19 07:16:15;;;;;;;4.80;3.53;;;23.00;99.90;;;;;;5073638;28;20384;-66
2022/07/19 07:18:40;;;;;;;4.75;3.55;;;23.10;99.90;;;;;;5072534;28;20128;-67
2022/07/19 07:21:06;;;;;;;4.97;3.38;;;23.20;99.90;;;;;;5073982;28;20044;-67
2022/07/19 07:23:32;;;;;;;5.03;3.58;;;23.30;99.90;;;;;;5055984;28;20052;-67
2022/07/19 07:25:58;;;;;;;5.40;3.65;;;23.40;99.90;;;;;;5073505;28;20051;-66
2022/07/19 07:28:23;;;;;;;4.80;3.70;;;23.60;99.90;;;;;;5073527;28;20174;-67
2022/07/19 07:30:49;;;;;;;5.78;3.42;;;23.70;99.90;;;;;;5073569;28;20047;-67
2022/07/19 07:33:15;;;;;;;6.60;4.15;;;23.80;99.90;;;;;;5073564;28;20048;-67
2022/07/19 07:35:40;;;;;;;4.75;3.22;;;23.90;99.90;;;;;;5073443;28;20047;-67
2022/07/19 07:38:06;;;;;;;5.68;3.28;;;24.00;99.90;;;;;;5073376;28;20132;-67
2022/07/19 07:40:31;;;;;;;5.25;3.20;;;24.10;99.90;;;;;;5073422;28;20098;-67
2022/07/19 07:42:57;;;;;;;6.30;3.42;;;24.20;99.90;;;;;;5072176;28;20048;-67
2022/07/19 07:45:23;;;;;;;7.95;3.33;;;24.30;99.90;;;;;;5073900;28;20048;-67
2022/07/19 07:47:49;;;;;;;4.78;3.47;;;24.40;99.90;;;;;;5073318;28;20093;-67
2022/07/19 07:50:15;;;;;;;4.47;3.00;;;24.50;99.90;;;;;;5073762;28;20121;-67
2022/07/19 07:52:40;;;;;;;5.60;2.88;;;24.60;99.90;;;;;;5072206;28;20063;-67
2022/07/19 07:55:07;;;;;;;4.97;3.03;;;24.70;99.90;;;;;;5073765;28;20074;-68
2022/07/19 07:57:32;;;;;;;6.35;2.80;;;24.80;99.90;;;;;;5073802;28;20438;-68
2022/07/19 07:59:58;;;;;;;3.95;2.80;;;24.90;99.90;;;;;;5073490;28;20127;-67
2022/07/19 08:02:24;;;;;;;4.38;2.75;;;25.00;99.90;;;;;;5073074;28;20516;-67
2022/07/19 08:04:50;;;;;;;4.00;2.67;;;25.10;99.90;;;;;;5072991;28;20052;-67
2022/07/19 08:07:15;;;;;;;4.13;2.67;;;25.20;99.90;;;;;;5073643;28;20472;-67
2022/07/19 08:09:41;;;;;;;4.80;2.40;;;25.30;99.90;;;;;;5073193;28;20036;-67
2022/07/19 08:12:07;;;;;;;3.97;2.45;;;25.40;99.90;;;;;;5073637;28;20526;-67
2022/07/19 08:14:32;;;;;;;4.75;2.50;;;25.50;99.90;;;;;;5075801;28;20131;-67
2022/07/19 08:16:58;;;;;;;3.85;2.55;;;25.70;99.90;;;;;;5079522;28;20055;-68
2022/07/19 08:19:24;;;;;;;4.57;2.35;;;25.70;99.90;;;;;;5079332;28;20043;-67
2022/07/19 08:21:50;;;;;;;5.65;2.80;;;25.90;99.90;;;;;;5079496;28;20040;-67
2022/07/19 08:24:16;;;;;;;4.30;2.50;;;26.00;99.90;;;;;;5079741;28;20393;-66
2022/07/19 08:26:41;;;;;;;3.83;2.28;;;26.10;99.90;;;;;;5079483;28;20040;-66
2022/07/19 08:29:07;;;;;;;3.58;2.38;;;26.30;99.90;;;;;;5080346;28;20102;-67
2022/07/19 08:31:33;;;;;;;4.70;2.20;;;26.40;99.90;;;;;;5079601;28;20075;-68
2022/07/19 08:33:59;;;;;;;3.88;2.15;;;26.50;99.90;;;;;;5080122;28;20370;-68
2022/07/19 08:36:24;;;;;;;3.92;2.35;;;26.60;99.90;;;;;;5078060;28;20052;-68
2022/07/19 08:38:50;;;;;;;3.28;2.00;;;26.70;99.90;;;;;;5079422;28;20041;-68
2022/07/19 08:41:16;;;;;;;3.42;2.40;;;26.80;99.90;;;;;;5078290;28;20036;-68
2022/07/19 08:43:42;;;;;;;3.88;2.00;;;26.90;99.90;;;;;;5079495;28;20048;-68
2022/07/19 08:46:08;;;;;;;3.80;2.30;;;27.00;99.90;;;;;;5080011;28;20123;-68
2022/07/19 08:48:35;;;;;;;3.30;2.00;;;27.20;99.90;;;;;;5079405;28;20045;-68
2022/07/19 08:51:02;;;;;;;4.00;1.90;;;27.30;99.90;;;;;;5079412;28;20397;-68
2022/07/19 08:53:32;;;;;;;3.03;1.98;;;27.40;99.90;;;;;;5079644;28;20193;-68
2022/07/19 08:56:01;;;;;;;3.08;2.05;;;27.50;99.90;;;;;;5079272;28;20048;-68
2022/07/19 08:58:27;;;;;;;5.15;1.95;;;27.60;99.90;;;;;;5078252;28;20048;-68
2022/07/19 09:00:52;;;;;;;5.00;2.05;;;27.70;99.90;;;;;;5079307;28;20513;-68
2022/07/19 09:03:18;;;;;;;3.03;1.83;;;27.80;99.90;;;;;;5077668;28;20053;-68
2022/07/19 09:05:44;;;;;;;4.32;2.00;;;27.90;99.90;;;;;;5079265;28;20055;-67
2022/07/19 09:08:13;;;;;;;3.63;1.90;;;28.00;99.90;;;;;;5079271;28;20072;-67
2022/07/19 09:10:42;;;;;;;3.42;1.98;;;28.10;99.90;;;;;;5079191;28;20409;-67
2022/07/19 09:13:12;;;;;;;3.10;2.10;;;28.20;99.90;;;;;;5079326;28;20511;-66
2022/07/19 09:15:39;;;;;;;3.50;1.70;;;28.40;99.90;;;;;;5079087;28;20535;-67
2022/07/19 09:18:31;;;;;;;3.15;1.80;;;28.40;99.90;;;;;;5078696;28;20704;-68
2022/07/19 09:21:05;;;;;;;3.47;1.90;;;28.50;99.90;;;;;;5078168;28;20062;-68
2022/07/19 09:23:33;;;;;;;2.88;1.85;;;28.60;99.90;;;;;;5078749;28;20481;-68
2022/07/19 09:26:04;;;;;;;2.65;1.70;;;28.80;99.90;;;;;;5076981;28;20439;-67
2022/07/19 09:28:33;;;;;;;3.75;1.70;;;28.90;99.90;;;;;;5075945;28;20080;-68
2022/07/19 09:31:00;;;;;;;2.67;1.75;;;29.00;99.90;;;;;;5074832;28;20063;-68
2022/07/19 09:33:29;;;;;;;4.22;2.20;;;29.10;99.90;;;;;;5075868;28;20044;-68
2022/07/19 09:36:00;;;;;;;3.40;1.80;;;29.10;99.90;;;;;;5076391;28;20041;-68
2022/07/19 09:38:30;;;;;;;4.18;1.60;;;29.20;99.90;;;;;;5075598;28;20526;-68
2022/07/19 09:41:13;;;;;;;4.88;2.10;;;29.30;99.90;;;;;;5074435;28;20056;-68
2022/07/19 09:44:01;;;;;;;4.30;1.58;;;29.40;99.90;;;;;;5075690;28;20045;-68
2022/07/19 09:46:36;;;;;;;3.95;1.70;;;29.50;99.90;;;;;;5076053;28;20048;-69
2022/07/19 09:49:04;;;;;;;4.72;1.90;;;29.60;99.90;;;;;;5074580;28;20052;-68
2022/07/19 09:51:32;;;;;;;3.47;1.63;;;29.60;99.90;;;;;;5075477;28;20052;-69
2022/07/19 09:53:58;;;;;;;2.78;1.58;;;29.70;99.90;;;;;;5075445;28;20464;-67
2022/07/19 09:56:26;;;;;;;3.65;1.90;;;29.80;99.90;;;;;;5074289;28;20493;-69
2022/07/19 09:58:53;;;;;;;3.38;1.50;;;29.80;99.90;;;;;;5076067;28;20074;-67
2022/07/19 10:01:19;;;;;;;2.38;1.50;;;29.90;99.90;;;;;;5075467;28;20127;-66
2022/07/19 10:03:45;;;;;;;4.43;1.83;;;30.00;99.90;;;;;;5074819;28;20502;-68
2022/07/19 10:06:11;;;;;;;3.15;1.60;;;30.00;99.90;;;;;;5075238;28;20092;-68
2022/07/19 10:08:37;;;;;;;2.78;1.70;;;30.10;99.90;;;;;;5075254;28;20047;-67
2022/07/19 10:11:03;;;;;;;5.53;1.48;;;30.20;99.90;;;;;;5075708;28;20048;-67
2022/07/19 10:13:29;;;;;;;3.95;1.70;;;30.20;99.90;;;;;;5075862;28;20071;-67
2022/07/19 10:16:01;;;;;;;2.20;1.50;;;30.30;99.90;;;;;;5075027;28;20056;-67
2022/07/19 10:18:50;;;;;;;2.42;1.30;;;30.40;99.60;;;;;;5075003;28;20044;-66
2022/07/19 10:21:15;;;;;;;4.05;1.60;;;30.40;98.60;;;;;;5075525;28;20052;-68
2022/07/19 10:23:51;;;;;;;3.92;1.77;;;30.50;98.10;;;;;;5074561;28;20052;-67
2022/07/19 10:26:40;;;;;;;3.63;1.50;;;30.50;97.50;;;;;;5075142;28;20090;-67
2022/07/19 10:29:10;;;;;;;4.25;1.58;;;30.60;97.00;;;;;;5075291;28;20102;-67
2022/07/19 10:31:36;;;;;;;2.67;1.60;;;30.70;96.70;;;;;;5074884;28;20373;-67
2022/07/19 10:34:22;;;;;;;3.85;1.50;;;30.70;96.20;;;;;;5074962;28;20451;-67
2022/07/19 10:36:49;;;;;;;;;;;30.80;97.00;;;;;;5075359;28;20127;-67
2022/07/19 10:39:18;;;;;;;2.58;1.35;;;30.90;96.60;;;;;;5074498;28;20404;-67
2022/07/19 10:42:04;;;;;;;3.35;1.42;;;30.90;96.30;;;;;;5075087;28;20052;-67
2022/07/19 10:44:30;;;;;;;4.28;1.52;;;30.90;94.90;;;;;;5074779;28;20120;-67
2022/07/19 10:46:56;;;;;;;3.08;1.50;;;31.00;94.40;;;;;;5074335;28;20059;-67
2022/07/19 10:49:44;;;;;;;3.40;1.50;;;31.00;93.50;;;;;;5074896;28;20048;-67
2022/07/19 10:52:28;;;;;;;6.18;1.95;;;31.10;93.10;;;;;;5074316;28;20649;-69
2022/07/19 10:55:27;;;;;;;2.53;1.70;;;31.20;93.00;;;;;;5074258;28;20050;-68
2022/07/19 10:57:59;;;;;;;2.55;1.50;;;31.20;92.50;;;;;;5074239;28;20078;-68
2022/07/19 11:00:27;;;;;;;3.20;1.40;;;31.20;92.60;;;;;;5073387;28;20059;-68
2022/07/19 11:03:22;;;;;;;2.63;1.40;;;31.30;91.40;;;;;;5073977;28;20536;-68
2022/07/19 11:05:59;;;;;;;3.35;1.67;;;31.40;90.70;;;;;;5074500;28;20048;-68
2022/07/19 11:08:35;;;;;;;5.05;1.40;;;31.50;90.40;;;;;;5074280;28;20410;-67
2022/07/19 11:11:12;;;;;;;2.72;1.27;;;31.50;90.70;;;;;;5073017;28;20059;-67
2022/07/19 11:13:42;;;;;;;3.92;1.58;;;31.60;90.20;;;;;;5073852;28;20053;-67
2022/07/19 11:16:08;;;;;;;2.47;1.60;;;31.60;90.10;;;;;;5074013;28;20048;-68
2022/07/19 11:18:34;;;;;;;2.95;1.20;;;31.70;90.30;;;;;;5073999;28;20037;-67
2022/07/19 11:21:02;;;;;;;3.42;1.50;;;31.70;90.10;;;;;;5072453;28;20036;-68
2022/07/19 11:23:34;;;;;;;2.25;1.30;;;31.70;88.90;;;;;;5073622;28;20090;-67
2022/07/19 11:26:10;;;;;;;4.60;1.38;;;31.80;86.20;;;;;;5073761;28;20161;-68
2022/07/19 11:28:37;;;;;;;2.42;1.42;;;31.90;84.80;;;;;;5073645;28;20068;-67
2022/07/19 11:31:14;;;;;;;2.22;1.20;;;32.00;84.20;;;;;;5073284;28;20401;-68
2022/07/19 11:33:40;;;;;;;2.28;1.30;;;32.00;82.00;;;;;;5073636;28;20083;-67
2022/07/19 11:36:06;;;;;;;3.28;1.50;;;32.10;81.40;;;;;;5072477;28;20044;-68
2022/07/19 11:38:35;;;;;;;2.65;1.20;;;32.10;81.70;;;;;;5072163;28;20055;-68
2022/07/19 11:41:01;;;;;;;3.13;1.20;;;32.20;81.90;;;;;;5073555;28;20044;-68
2022/07/19 11:43:26;;;;;;;2.92;1.25;;;32.20;81.90;;;;;;5073464;28;20496;-68
2022/07/19 11:45:52;;;;;;;3.67;1.30;;;32.20;80.00;;;;;;5073999;28;20048;-67
2022/07/19 11:48:31;;;;;;;3.97;1.13;;;32.30;79.80;;;;;;5073687;28;20483;-68
2022/07/19 11:51:08;;;;;;;2.70;1.38;;;32.30;78.70;;;;;;5071952;28;20048;-68
2022/07/19 11:53:36;;;;;;;2.33;1.20;;;32.40;77.70;;;;;;5074171;28;20135;-67
2022/07/19 11:56:02;;;;;;;3.17;1.40;;;32.50;77.60;;;;;;5073669;28;20051;-68
2022/07/19 11:58:29;;;;;;;2.88;1.20;;;32.50;77.70;;;;;;5073170;28;20481;-68
2022/07/19 12:01:01;;;;;;;2.00;1.10;;;32.50;76.30;;;;;;5072523;28;20044;-68
2022/07/19 12:03:26;;;;;;;2.03;1.10;;;32.60;75.20;;;;;;5072766;28;20530;-68
2022/07/19 12:06:01;;;;;;;2.20;1.15;;;32.60;75.10;;;;;;5072870;28;20092;-69
2022/07/19 12:08:38;;;;;;;1.83;1.10;;;32.60;75.10;;;;;;5073678;28;20483;-67
2022/07/19 12:11:21;;;;;;;2.35;0.95;;;32.60;74.20;;;;;;5073606;28;20097;-68
2022/07/19 12:13:47;;;;;;;2.90;1.20;;;32.60;74.20;;;;;;5073652;28;20048;-68
2022/07/19 12:16:13;;;;;;;2.58;1.10;;;32.60;74.30;;;;;;5073127;28;20049;-68
2022/07/19 12:18:56;;;;;;;3.85;1.00;;;32.60;74.60;;;;;;5072933;28;20040;-69
2022/07/19 12:21:48;;;;;;;2.53;1.00;;;32.60;74.60;;;;;;5073082;28;20050;-67
2022/07/19 12:24:25;;;;;;;2.75;1.20;;;32.60;74.20;;;;;;5071591;28;20135;-68
2022/07/19 12:27:00;;;;;;;3.92;1.17;;;32.70;74.90;;;;;;5072912;28;20060;-67
2022/07/19 12:29:40;;;;;;;2.30;1.20;;;32.70;72.70;;;;;;5073072;28;20509;-67
2022/07/19 12:32:26;;;;;;;2.47;1.17;;;32.80;71.70;;;;;;5072975;28;20045;-67
2022/07/19 12:34:58;;;;;;;2.10;1.13;;;32.90;71.60;;;;;;5072913;28;20047;-67
2022/07/19 12:37:26;;;;;;;3.20;1.02;;;33.00;71.60;;;;;;5073983;28;20480;-67
2022/07/19 12:40:12;;;;;;;2.50;1.23;;;33.00;71.50;;;;;;5072891;28;20051;-68
2022/07/19 12:42:49;;;;;;;3.67;1.30;;;32.90;71.10;;;;;;5073082;28;20044;-69
2022/07/19 12:45:19;;;;;;;2.25;1.17;;;32.90;71.50;;;;;;5072866;28;20054;-68
2022/07/19 12:47:46;;;;;;;3.47;1.33;;;32.90;71.30;;;;;;5072789;28;20091;-68
2022/07/19 12:50:46;;;;;;;2.67;1.20;;;33.00;71.80;;;;;;5072941;28;20423;-67
2022/07/19 12:53:13;;;;;;;1.83;0.98;;;33.00;71.30;;;;;;5068332;28;20482;-67